Time;durP1;ratioP1;P1;durP2;ratioP2;P2;SDS_P1;SDS_P2;PMS_P1;PMS_P2;Temp;Humidity;BMP_temperature;BMP_pressure;BME280_temperature;BME280_humidity;BME280_pressure;Samples;Min_cycle;Max_cycle;Signal;HPM_P1;HPM_P2
2023/08/21 00:01:59;;;;;;;20.27;12.18;;;;;;;26.34;59.92;100627.72;30607029;28;97306;-71
2023/08/21 00:16:59;;;;;;;17.60;12.57;;;;;;;26.00;60.01;100627.22;30604533;28;97439;-71
2023/08/21 00:31:59;;;;;;;16.65;12.35;;;;;;;26.04;60.46;100608.44;30602765;28;105952;-71
2023/08/21 00:47:00;;;;;;;15.48;12.07;;;;;;;25.98;60.84;100619.28;30602605;28;96990;-71
2023/08/21 01:02:00;;;;;;;20.38;14.02;;;;;;;25.41;61.65;100600.84;30600957;28;97518;-71
2023/08/21 01:17:04;;;;;;;18.10;13.68;;;;;;;25.54;63.08;100600.41;30598987;28;97219;-71
2023/08/21 01:32:18;;;;;;;17.70;11.63;;;;;;;25.40;63.54;100615.56;30598713;28;96732;-71
2023/08/21 01:47:18;;;;;;;13.17;10.40;;;;;;;25.77;62.67;100606.59;30596950;28;97583;-71
2023/08/21 02:02:18;;;;;;;16.65;10.90;;;;;;;26.06;62.19;100619.91;30595710;28;96737;-72
2023/08/21 02:17:19;;;;;;;15.80;12.48;;;;;;;25.07;63.43;100637.31;30607736;28;106017;-72
2023/08/21 02:32:19;;;;;;;19.25;13.35;;;;;;;24.60;65.28;100644.06;30614694;28;107495;-71
2023/08/21 02:47:19;;;;;;;17.52;15.73;;;;;;;23.72;67.47;100760.81;30613350;28;100824;-72
2023/08/21 03:02:20;;;;;;;13.05;11.65;;;;;;;22.88;70.33;100738.50;30612051;28;109753;-71
2023/08/21 03:17:21;;;;;;;9.80;6.30;;;;;;;22.79;71.26;100663.88;30609084;28;98714;-71
2023/08/21 03:32:21;;;;;;;7.38;4.47;;;;;;;22.70;71.68;100659.88;30609456;28;97253;-71
2023/08/21 03:47:21;;;;;;;10.65;6.88;;;;;;;22.54;72.52;100677.72;30607690;28;97198;-71
2023/08/21 04:02:22;;;;;;;13.68;10.68;;;;;;;22.37;73.05;100678.44;30603833;28;97531;-71
2023/08/21 04:17:22;;;;;;;;;;;;;;;22.18;74.72;100718.41;30601838;28;97675;-71
2023/08/21 04:32:23;;;;;;;16.43;12.10;;;;;;;22.11;75.42;100740.22;30598525;28;97307;-72
2023/08/21 04:47:24;;;;;;;;;;;;;;;22.03;75.71;100710.72;30599301;28;97444;-72
2023/08/21 05:02:24;;;;;;;16.30;12.97;;;;;;;21.84;76.03;100709.97;30599098;28;97206;-71
2023/08/21 05:17:26;;;;;;;15.48;12.85;;;;;;;21.83;77.08;100740.88;30596769;28;101929;-72
2023/08/21 05:32:26;;;;;;;14.87;13.30;;;;;;;22.00;76.64;100748.34;30595326;28;97390;-72
2023/08/21 05:47:27;;;;;;;;;;;;;;;22.09;76.82;100742.34;30591684;28;110180;-73
2023/08/21 06:02:27;;;;;;;10.37;8.47;;;;;;;22.92;76.32;100758.69;30585323;28;97386;-74
2023/08/21 06:17:28;;;;;;;7.20;4.82;;;;;;;24.22;71.96;100770.97;30566331;28;97525;-74
2023/08/21 06:32:28;;;;;;;13.25;6.18;;;;;;;24.90;67.84;100789.97;30589261;28;96857;-74
2023/08/21 06:47:29;;;;;;;9.63;4.15;;;;;;;24.73;64.76;100800.06;30588243;28;97298;-71
2023/08/21 07:02:29;;;;;;;13.60;5.20;;;;;;;24.86;63.33;100805.19;30599281;28;103671;-70
2023/08/21 07:17:29;;;;;;;5.93;4.32;;;;;;;25.76;60.13;100806.84;30605410;28;98283;-79
2023/08/21 07:32:30;;;;;;;9.45;4.20;;;;;;;25.68;59.52;100830.81;30602895;28;99921;-75
2023/08/21 07:47:30;;;;;;;11.35;4.38;;;;;;;25.84;59.04;100833.69;30602564;28;96923;-77
2023/08/21 08:02:30;;;;;;;6.55;3.55;;;;;;;26.54;56.94;100833.78;30603438;28;97582;-74
2023/08/21 08:17:31;;;;;;;5.15;3.40;;;;;;;27.93;53.55;100830.97;30600577;28;109493;-74
2023/08/21 08:32:31;;;;;;;11.35;3.45;;;;;;;28.57;49.60;100812.34;30599541;28;106268;-74
2023/08/21 08:47:34;;;;;;;10.27;3.50;;;;;;;29.71;47.01;100805.41;30598249;28;97344;-75
2023/08/21 09:02:35;;;;;;;5.10;2.10;;;;;;;30.60;43.90;100817.41;30596442;28;97656;-77
2023/08/21 09:17:35;;;;;;;4.72;2.10;;;;;;;30.79;40.28;100818.31;30594019;28;98209;-77
2023/08/21 09:33:00;;;;;;;3.53;1.80;;;;;;;29.89;40.33;100814.94;30593655;28;113938;-75
2023/08/21 09:48:02;;;;;;;11.50;2.63;;;;;;;31.71;39.25;100799.03;30593016;28;98775;-77
2023/08/21 10:03:04;;;;;;;3.77;2.13;;;;;;;35.08;34.14;100778.53;30592366;28;97400;-78
2023/08/21 10:18:25;;;;;;;4.10;2.10;;;;;;;34.79;33.31;100770.78;30591133;28;97295;-70
2023/08/21 10:33:47;;;;;;;6.40;2.53;;;;;;;35.12;32.96;100778.69;30595412;28;97466;-70
2023/08/21 10:48:48;;;;;;;3.47;1.90;;;;;;;33.12;34.89;100777.00;30600070;28;97059;-71
2023/08/21 11:03:51;;;;;;;2.60;1.40;;;;;;;32.12;35.74;100783.81;30604546;28;97065;-73
2023/08/21 11:18:51;;;;;;;4.23;1.57;;;;;;;31.61;35.62;100777.97;30606129;28;107600;-77
2023/08/21 11:33:52;;;;;;;6.22;1.80;;;;;;;33.38;34.14;100752.44;30607606;28;97329;-73
2023/08/21 11:48:52;;;;;;;5.85;1.90;;;;;;;33.95;33.54;100749.19;30605496;28;97531;-73
2023/08/21 12:03:56;;;;;;;6.13;2.00;;;;;;;34.63;32.61;100746.31;30603219;28;97437;-73
2023/08/21 12:18:57;;;;;;;4.90;2.27;;;;;;;36.66;30.50;100729.31;30600904;28;97397;-73
2023/08/21 12:33:58;;;;;;;4.63;2.10;;;;;;;36.74;29.70;100716.53;30599022;28;97550;-73
2023/08/21 12:49:00;;;;;;;5.57;2.28;;;;;;;35.70;30.41;100710.97;30599573;28;96763;-75
2023/08/21 13:04:01;;;;;;;5.60;2.33;;;;;;;34.87;31.90;100700.81;30593004;28;96916;-71
2023/08/21 13:19:02;;;;;;;6.97;2.50;;;;;;;34.49;32.62;100695.81;30595590;28;97174;-75
2023/08/21 13:34:03;;;;;;;4.45;2.47;;;;;;;34.33;33.39;100687.94;30594397;28;97028;-72
2023/08/21 13:49:03;;;;;;;7.50;3.00;;;;;;;33.66;34.39;100681.34;30590893;28;98655;-76
2023/08/21 14:04:04;;;;;;;3.47;2.63;;;;;;;32.99;35.92;100668.28;30590494;28;104554;-72
2023/08/21 14:19:04;;;;;;;4.13;2.80;;;;;;;32.26;37.90;100657.91;30587842;28;97334;-75
2023/08/21 14:34:04;;;;;;;8.02;3.25;;;;;;;31.96;38.90;100660.09;30587224;28;97211;-75
2023/08/21 14:49:05;;;;;;;5.95;3.58;;;;;;;31.45;39.73;100647.16;30585647;28;102477;-71
2023/08/21 15:04:06;;;;;;;6.82;3.33;;;;;;;31.17;39.70;100644.28;30585040;28;97280;-74
2023/08/21 15:19:06;;;;;;;6.97;2.97;;;;;;;30.61;40.35;100643.91;30580304;28;97235;-69
2023/08/21 15:34:06;;;;;;;9.43;3.17;;;;;;;30.30;41.39;100630.50;30601030;28;96843;-69
2023/08/21 15:49:10;;;;;;;5.45;2.97;;;;;;;30.54;40.82;100636.03;30601879;28;105853;-73
2023/08/21 16:04:10;;;;;;;6.60;2.77;;;;;;;30.33;40.77;100631.84;30601002;28;97747;-71
2023/08/21 16:19:10;;;;;;;8.10;2.50;;;;;;;29.78;42.40;100632.13;30603354;28;107802;-74
2023/08/21 16:34:11;;;;;;;6.20;2.30;;;;;;;29.99;41.06;100638.25;30599566;28;107860;-73
2023/08/21 16:49:11;;;;;;;4.30;2.33;;;;;;;29.13;40.96;100624.91;30596299;28;105378;-73
2023/08/21 17:04:11;;;;;;;3.40;2.13;;;;;;;28.44;41.72;100641.13;30597617;28;102706;-74
2023/08/21 17:19:12;;;;;;;4.68;2.53;;;;;;;27.86;42.66;100643.13;30596274;28;97230;-71
2023/08/21 17:34:12;;;;;;;6.43;2.70;;;;;;;27.26;44.18;100640.09;30594674;28;97205;-72
2023/08/21 17:49:12;;;;;;;4.63;2.53;;;;;;;26.75;45.70;100634.47;30594832;28;102277;-72
2023/08/21 18:04:13;;;;;;;9.10;3.38;;;;;;;26.23;47.29;100639.69;30594212;28;106829;-74
2023/08/21 18:19:13;;;;;;;5.45;3.47;;;;;;;26.53;49.13;100649.09;30591850;28;97172;-73
2023/08/21 18:34:13;;;;;;;5.22;3.10;;;;;;;27.18;47.83;100657.03;30590481;28;96893;-77
2023/08/21 18:49:14;;;;;;;8.45;4.00;;;;;;;27.16;48.17;100665.50;30588083;28;97662;-75
2023/08/21 19:04:14;;;;;;;7.45;4.00;;;;;;;27.09;48.63;100672.31;30606696;28;111311;-77
2023/08/21 19:19:15;;;;;;;14.30;5.93;;;;;;;26.90;49.39;100671.97;30606393;28;102719;-77
2023/08/21 19:34:15;;;;;;;11.93;6.25;;;;;;;26.71;50.13;100675.19;30603171;28;97281;-75
2023/08/21 19:49:15;;;;;;;11.65;6.22;;;;;;;26.28;51.82;100679.84;30601699;28;97025;-69
2023/08/21 20:04:16;;;;;;;9.90;5.72;;;;;;;26.18;52.68;100681.41;30592652;28;97178;-77
2023/08/21 20:19:17;;;;;;;10.68;5.22;;;;;;;25.88;53.41;100684.72;30553397;28;97313;-71
2023/08/21 20:34:17;;;;;;;10.57;5.28;;;;;;;25.80;53.92;100687.94;30475473;28;97399;-74
2023/08/21 20:49:18;;;;;;;11.48;4.47;;;;;;;25.57;54.21;100700.00;30472606;28;98635;-81
2023/08/21 21:04:18;;;;;;;7.85;4.25;;;;;;;25.05;55.17;100707.59;30553419;28;110435;-76
2023/08/21 21:19:18;;;;;;;7.18;5.13;;;;;;;24.43;56.48;100693.16;30591548;28;97261;-71
2023/08/21 21:34:19;;;;;;;7.15;4.90;;;;;;;24.26;58.03;100692.34;30590454;28;107495;-72
2023/08/21 21:49:19;;;;;;;12.07;5.35;;;;;;;24.09;58.59;100695.91;30588653;28;109199;-73
2023/08/21 22:04:19;;;;;;;14.43;5.45;;;;;;;23.87;58.38;100684.91;30589096;28;112090;-71
2023/08/21 22:19:20;;;;;;;10.32;5.25;;;;;;;23.09;60.23;100687.28;30588479;28;104747;-78
2023/08/21 22:34:20;;;;;;;13.80;8.85;;;;;;;22.75;61.56;100682.53;30605400;28;102915;-78
2023/08/21 22:49:20;;;;;;;10.80;5.65;;;;;;;22.48;62.55;100684.94;30609464;28;97529;-74
2023/08/21 23:04:20;;;;;;;;;;;;;;;22.26;64.04;100679.25;30607027;28;107044;-76
2023/08/21 23:19:21;;;;;;;7.83;5.83;;;;;;;21.86;64.73;100664.47;30610606;28;98467;-72
2023/08/21 23:34:21;;;;;;;15.65;6.40;;;;;;;21.42;65.82;100670.13;30614304;28;97172;-80
2023/08/21 23:49:22;;;;;;;10.87;6.10;;;;;;;21.23;66.52;100672.06;30611314;28;102538;-75
